Time;durP1;ratioP1;P1;durP2;ratioP2;P2;SDS_P1;SDS_P2;PMS_P1;PMS_P2;Temp;Humidity;BMP_temperature;BMP_pressure;BME280_temperature;BME280_humidity;BME280_pressure;Samples;Min_cycle;Max_cycle;Signal;HPM_P1;HPM_P2
2021/03/28 00:00:23;;;;;;;6.65;2.47;;;4.90;81.90;;;;;;4913122;29;20114;-62
2021/03/28 00:03:00;;;;;;;9.60;2.53;;;4.90;81.90;;;;;;4909129;29;20036;-62
2021/03/28 00:05:33;;;;;;;6.78;2.72;;;4.90;82.00;;;;;;4903814;29;20027;-62
2021/03/28 00:08:29;;;;;;;5.90;2.10;;;4.90;82.00;;;;;;4912078;29;20035;-62
2021/03/28 00:11:12;;;;;;;5.15;2.30;;;4.80;82.10;;;;;;4908297;29;20047;-62
2021/03/28 00:13:52;;;;;;;10.20;2.83;;;4.80;81.90;;;;;;4914173;29;20032;-62
2021/03/28 00:16:20;;;;;;;5.53;2.47;;;4.80;82.40;;;;;;4901982;29;20492;-62
2021/03/28 00:18:54;;;;;;;6.30;2.20;;;4.80;82.00;;;;;;4908812;29;20039;-62
2021/03/28 00:21:23;;;;;;;3.80;2.17;;;4.80;82.10;;;;;;4911569;29;20042;-62
2021/03/28 00:23:55;;;;;;;8.38;2.85;;;4.80;81.80;;;;;;4915286;29;20082;-62
2021/03/28 00:26:30;;;;;;;6.80;2.50;;;4.80;82.20;;;;;;4916653;29;20552;-62
2021/03/28 00:29:25;;;;;;;5.05;2.35;;;4.70;81.90;;;;;;4930142;29;20139;-62
2021/03/28 00:32:07;;;;;;;6.13;2.05;;;4.80;82.00;;;;;;4910543;29;20540;-62
2021/03/28 00:34:39;;;;;;;5.45;2.17;;;4.70;81.80;;;;;;4909151;29;20032;-62
2021/03/28 00:37:07;;;;;;;8.15;2.38;;;4.70;82.00;;;;;;4911492;29;20040;-62
2021/03/28 00:39:36;;;;;;;8.55;2.70;;;4.60;82.30;;;;;;4915997;29;20036;-62
2021/03/28 00:42:10;;;;;;;9.32;2.70;;;4.70;82.80;;;;;;4916850;29;20114;-62
2021/03/28 00:44:55;;;;;;;5.03;2.70;;;4.60;82.30;;;;;;4900605;29;20052;-62
2021/03/28 00:47:30;;;;;;;6.13;2.33;;;4.60;82.50;;;;;;4910693;29;20047;-62
2021/03/28 00:50:20;;;;;;;6.13;2.17;;;4.60;82.40;;;;;;4907375;29;20040;-62
2021/03/28 00:52:57;;;;;;;12.18;2.80;;;4.70;82.80;;;;;;4919145;29;20118;-62
2021/03/28 00:55:40;;;;;;;7.10;2.72;;;4.70;82.60;;;;;;4897099;29;20064;-62
2021/03/28 00:58:17;;;;;;;6.10;2.33;;;4.70;82.30;;;;;;4900432;29;20036;-62
2021/03/28 01:01:17;;;;;;;6.88;2.42;;;4.70;82.00;;;;;;4900756;29;20035;-62
2021/03/28 01:04:06;;;;;;;10.27;2.50;;;4.70;82.70;;;;;;4907061;29;20071;-62
2021/03/28 01:06:46;;;;;;;5.05;2.28;;;4.70;82.50;;;;;;4908419;29;20051;-62
2021/03/28 01:09:34;;;;;;;5.68;2.83;;;4.70;82.60;;;;;;4904446;29;20075;-62
2021/03/28 01:12:45;;;;;;;6.88;2.47;;;4.70;83.00;;;;;;4898220;29;20429;-62
2021/03/28 01:15:32;;;;;;;10.52;2.60;;;4.70;83.10;;;;;;4915968;29;20049;-62
2021/03/28 01:18:05;;;;;;;8.15;2.70;;;4.70;82.90;;;;;;4923203;29;20035;-62
2021/03/28 01:20:41;;;;;;;7.40;2.20;;;4.70;83.00;;;;;;4927552;29;20661;-62
2021/03/28 01:23:30;;;;;;;7.35;2.42;;;4.70;83.20;;;;;;4898269;29;20047;-62
2021/03/28 01:26:29;;;;;;;15.23;2.95;;;4.70;82.90;;;;;;4902733;29;20420;-62
2021/03/28 01:28:59;;;;;;;11.13;2.72;;;4.70;83.10;;;;;;4904998;29;20036;-62
2021/03/28 01:31:41;;;;;;;5.90;3.45;;;4.70;83.20;;;;;;4907962;29;20043;-62
2021/03/28 01:34:07;;;;;;;9.43;2.67;;;4.60;83.50;;;;;;4911091;29;20039;-62
2021/03/28 01:36:39;;;;;;;9.07;3.17;;;4.60;83.60;;;;;;4908630;29;20503;-62
2021/03/28 01:39:05;;;;;;;9.50;3.20;;;4.60;83.30;;;;;;4906478;29;20143;-62
2021/03/28 01:41:35;;;;;;;7.72;2.42;;;4.60;82.90;;;;;;4903477;29;20054;-62
2021/03/28 01:44:15;;;;;;;9.73;3.25;;;4.70;82.60;;;;;;4915372;29;20028;-62
2021/03/28 01:46:56;;;;;;;10.15;2.75;;;4.60;82.90;;;;;;4914599;29;20051;-62
2021/03/28 01:49:39;;;;;;;16.20;3.10;;;4.70;83.00;;;;;;4912088;29;20388;-62
2021/03/28 01:52:22;;;;;;;9.80;3.35;;;4.70;83.10;;;;;;4921550;29;20047;-62
2021/03/28 01:55:07;;;;;;;6.07;2.72;;;4.60;83.50;;;;;;4916997;29;20047;-62
2021/03/28 01:57:52;;;;;;;7.38;3.10;;;4.70;82.90;;;;;;4919209;29;20043;-62
2021/03/28 02:00:54;;;;;;;11.30;3.08;;;4.70;82.80;;;;;;4912391;29;20118;-61
2021/03/28 02:03:41;;;;;;;8.27;2.58;;;4.70;82.80;;;;;;4894650;29;20055;-62
2021/03/28 02:06:43;;;;;;;8.98;2.95;;;4.70;82.30;;;;;;4924417;29;20605;-62
2021/03/28 02:09:39;;;;;;;9.77;3.08;;;4.70;82.60;;;;;;4905110;29;20051;-62
2021/03/28 02:12:38;;;;;;;5.78;2.55;;;4.60;82.60;;;;;;4902647;29;20108;-61
2021/03/28 02:15:10;;;;;;;8.10;2.92;;;4.60;82.30;;;;;;4901642;29;20032;-61
2021/03/28 02:18:16;;;;;;;13.15;3.42;;;4.60;82.40;;;;;;4914370;29;20889;-61
2021/03/28 02:21:07;;;;;;;7.03;2.78;;;4.60;82.50;;;;;;4909683;29;20078;-61
2021/03/28 02:23:47;;;;;;;5.30;2.53;;;4.60;82.20;;;;;;4912702;29;20751;-61
2021/03/28 02:26:26;;;;;;;8.90;2.42;;;4.50;82.40;;;;;;4900489;29;20066;-61
2021/03/28 02:29:10;;;;;;;8.63;3.20;;;4.50;82.60;;;;;;4902489;29;20802;-61
2021/03/28 02:31:54;;;;;;;6.15;2.78;;;4.40;82.80;;;;;;4904450;29;20927;-61
2021/03/28 02:34:54;;;;;;;8.05;2.80;;;4.50;82.70;;;;;;4908712;29;20106;-61
2021/03/28 02:37:34;;;;;;;4.40;2.33;;;4.40;82.50;;;;;;4908548;29;20055;-61
2021/03/28 02:40:30;;;;;;;7.55;3.13;;;4.40;82.40;;;;;;4915999;29;20035;-61
2021/03/28 02:43:07;;;;;;;9.07;2.80;;;4.40;82.20;;;;;;4900880;29;20043;-61
2021/03/28 02:45:37;;;;;;;8.52;2.45;;;4.30;82.90;;;;;;4902526;29;20210;-61
2021/03/28 02:48:27;;;;;;;12.98;3.05;;;4.30;82.40;;;;;;4905964;29;20508;-60
2021/03/28 02:51:24;;;;;;;11.32;2.80;;;4.30;82.80;;;;;;4908963;29;20040;-61
2021/03/28 02:54:19;;;;;;;10.40;2.60;;;4.30;82.50;;;;;;4912656;29;20047;-61
2021/03/28 02:56:49;;;;;;;11.10;2.67;;;4.20;82.00;;;;;;4901067;29;20039;-61
2021/03/28 02:59:30;;;;;;;9.57;2.40;;;4.20;81.80;;;;;;4910845;29;20039;-61
2021/03/28 03:02:18;;;;;;;6.90;2.42;;;4.20;82.80;;;;;;4909607;29;20079;-61
2021/03/28 03:04:44;;;;;;;6.72;2.70;;;4.10;82.60;;;;;;4912142;29;20515;-61
2021/03/28 03:07:41;;;;;;;7.95;2.90;;;4.10;82.60;;;;;;4911654;29;20495;-60
2021/03/28 03:10:32;;;;;;;8.15;2.10;;;4.10;82.60;;;;;;4910675;29;20036;-61
2021/03/28 03:13:16;;;;;;;7.63;2.97;;;4.20;82.20;;;;;;4903896;29;20171;-61
2021/03/28 03:16:02;;;;;;;8.13;2.80;;;4.10;82.40;;;;;;4901741;29;20741;-61
2021/03/28 03:19:05;;;;;;;7.78;2.72;;;4.10;82.50;;;;;;4911289;29;20047;-61
2021/03/28 03:22:08;;;;;;;9.95;2.72;;;4.10;82.50;;;;;;4906060;29;20396;-61
2021/03/28 03:24:52;;;;;;;4.88;2.15;;;4.10;82.50;;;;;;4913158;29;20536;-61
2021/03/28 03:27:49;;;;;;;6.20;2.45;;;4.10;81.90;;;;;;4913121;29;20040;-61
2021/03/28 03:30:35;;;;;;;8.63;2.72;;;4.10;82.30;;;;;;4907887;29;20910;-61
2021/03/28 03:33:24;;;;;;;9.20;3.05;;;4.00;82.40;;;;;;4920266;29;20777;-61
2021/03/28 03:36:11;;;;;;;5.22;2.20;;;4.00;82.30;;;;;;4909651;28;20115;-61
2021/03/28 03:39:04;;;;;;;5.82;2.55;;;4.00;81.80;;;;;;4910448;29;20048;-61
2021/03/28 03:41:54;;;;;;;7.57;3.00;;;4.00;82.40;;;;;;4911773;29;20032;-61
2021/03/28 03:45:17;;;;;;;13.05;3.25;;;4.00;82.60;;;;;;4912731;29;20042;-61
2021/03/28 03:48:12;;;;;;;9.18;2.45;;;4.00;81.90;;;;;;4912968;29;20067;-61
2021/03/28 03:50:49;;;;;;;10.77;2.67;;;3.90;81.90;;;;;;4910508;29;20385;-61
2021/03/28 03:53:23;;;;;;;5.13;3.13;;;3.90;82.20;;;;;;4911038;29;20046;-61
2021/03/28 03:56:08;;;;;;;6.80;2.97;;;3.90;82.40;;;;;;4905166;29;20849;-61
2021/03/28 03:58:40;;;;;;;10.70;3.38;;;3.90;82.50;;;;;;4917072;29;20079;-61
2021/03/28 04:01:20;;;;;;;8.25;2.90;;;3.90;82.40;;;;;;4911765;29;20047;-61
2021/03/28 04:03:48;;;;;;;7.80;2.80;;;3.90;82.30;;;;;;4912801;29;20067;-61
2021/03/28 04:06:41;;;;;;;3.95;2.28;;;3.90;82.30;;;;;;4911896;29;20440;-61
2021/03/28 04:09:59;;;;;;;8.88;2.80;;;3.90;82.40;;;;;;4907483;29;20035;-61
2021/03/28 04:12:57;;;;;;;10.73;3.10;;;3.90;82.00;;;;;;4872101;29;20493;-61
2021/03/28 04:16:17;;;;;;;4.90;2.80;;;3.90;82.20;;;;;;4890198;29;20485;-61
2021/03/28 04:18:56;;;;;;;8.20;2.85;;;3.90;82.80;;;;;;4878397;29;20043;-61
2021/03/28 04:21:43;;;;;;;7.40;2.83;;;3.90;82.30;;;;;;4913095;29;20040;-61
2021/03/28 04:24:46;;;;;;;8.05;2.70;;;3.80;82.30;;;;;;4904932;29;20076;-61
2021/03/28 04:27:23;;;;;;;8.40;2.95;;;3.80;82.30;;;;;;4898213;29;20062;-61
2021/03/28 04:29:51;;;;;;;8.20;3.13;;;3.80;82.50;;;;;;4900353;29;20080;-61
2021/03/28 04:32:19;;;;;;;7.60;3.20;;;3.80;82.50;;;;;;4914874;29;20048;-61
2021/03/28 04:35:20;;;;;;;11.90;3.00;;;3.80;82.50;;;;;;4926905;29;20787;-61
2021/03/28 04:38:03;;;;;;;9.13;3.10;;;3.80;82.50;;;;;;4912887;29;20691;-61
2021/03/28 04:40:40;;;;;;;8.45;2.92;;;3.80;82.90;;;;;;4927136;29;20043;-61
2021/03/28 04:43:50;;;;;;;6.53;2.75;;;3.70;82.20;;;;;;4899225;29;20032;-61
2021/03/28 04:46:38;;;;;;;10.80;3.63;;;3.70;82.70;;;;;;4905856;29;20217;-65
2021/03/28 04:49:17;;;;;;;8.60;2.83;;;3.70;83.40;;;;;;4913156;29;20106;-65
2021/03/28 04:52:04;;;;;;;6.93;2.92;;;3.70;82.60;;;;;;4908739;29;20027;-66
2021/03/28 04:54:32;;;;;;;8.73;3.33;;;3.70;82.60;;;;;;4911713;29;20084;-65
2021/03/28 04:57:01;;;;;;;6.40;3.35;;;3.70;82.70;;;;;;4911257;29;20780;-65
2021/03/28 05:00:20;;;;;;;9.35;2.97;;;3.70;82.60;;;;;;4911453;29;20043;-66
2021/03/28 05:02:58;;;;;;;7.85;3.30;;;3.80;82.40;;;;;;4873748;29;20541;-65
2021/03/28 05:05:58;;;;;;;5.75;3.28;;;3.80;82.20;;;;;;4911190;29;20043;-65
2021/03/28 05:08:40;;;;;;;9.25;3.42;;;3.80;82.00;;;;;;4909455;29;20044;-67
2021/03/28 05:11:39;;;;;;;9.38;3.22;;;3.80;82.00;;;;;;4915537;29;20126;-65
2021/03/28 05:14:42;;;;;;;11.07;3.17;;;3.80;81.70;;;;;;4915971;29;20047;-65
2021/03/28 05:17:40;;;;;;;10.32;3.90;;;3.80;81.80;;;;;;4906303;29;20040;-65
2021/03/28 05:20:23;;;;;;;4.68;3.13;;;3.80;81.70;;;;;;4905165;29;20046;-65
2021/03/28 05:23:18;;;;;;;6.82;3.28;;;3.80;81.80;;;;;;4916721;29;20032;-65
2021/03/28 05:26:22;;;;;;;7.60;3.40;;;3.90;82.10;;;;;;4914712;29;20031;-71
2021/03/28 05:29:27;;;;;;;8.13;3.63;;;3.90;82.10;;;;;;4888709;29;20043;-66
2021/03/28 05:32:20;;;;;;;7.60;3.22;;;4.00;81.70;;;;;;4915226;29;20123;-65
2021/03/28 05:35:13;;;;;;;7.22;2.92;;;4.10;81.90;;;;;;4906769;29;20381;-64
2021/03/28 05:37:57;;;;;;;9.63;3.40;;;4.20;81.30;;;;;;4911029;29;20027;-64
2021/03/28 05:40:51;;;;;;;7.22;3.40;;;4.20;81.10;;;;;;4907799;29;20102;-65
2021/03/28 05:43:49;;;;;;;6.43;3.40;;;4.30;81.00;;;;;;4910451;29;20158;-65
2021/03/28 05:46:54;;;;;;;7.22;3.13;;;4.50;80.90;;;;;;4918404;29;20470;-70
2021/03/28 05:49:41;;;;;;;8.18;4.00;;;4.60;80.60;;;;;;4887169;29;20040;-65
2021/03/28 05:52:29;;;;;;;6.40;3.20;;;4.70;79.20;;;;;;4910566;29;20102;-67
2021/03/28 05:55:19;;;;;;;10.02;3.20;;;4.90;78.40;;;;;;4911764;29;20280;-67
2021/03/28 05:58:07;;;;;;;8.25;3.70;;;5.00;77.90;;;;;;4910096;29;20035;-66
2021/03/28 06:01:00;;;;;;;9.43;3.13;;;5.20;76.30;;;;;;4906115;29;20036;-65
2021/03/28 06:04:04;;;;;;;16.20;3.83;;;5.30;76.20;;;;;;4899640;29;20132;-65
2021/03/28 06:07:07;;;;;;;10.98;2.85;;;5.40;76.10;;;;;;4908024;29;20040;-65
2021/03/28 06:10:07;;;;;;;11.20;3.63;;;5.60;75.00;;;;;;4909914;29;20036;-66
2021/03/28 06:13:06;;;;;;;10.18;3.33;;;5.80;74.70;;;;;;4908576;29;20035;-66
2021/03/28 06:16:09;;;;;;;7.28;3.42;;;6.00;74.00;;;;;;4911601;29;20040;-66
2021/03/28 06:18:53;;;;;;;5.70;3.22;;;6.20;72.30;;;;;;4902713;29;20043;-66
2021/03/28 06:21:38;;;;;;;6.10;3.35;;;6.30;71.20;;;;;;4904933;29;20051;-66
2021/03/28 06:24:28;;;;;;;8.65;3.50;;;6.30;71.10;;;;;;4912978;29;20994;-65
2021/03/28 06:27:21;;;;;;;7.97;3.63;;;6.40;71.00;;;;;;4911321;29;20044;-66
2021/03/28 06:30:11;;;;;;;6.30;3.28;;;6.50;70.90;;;;;;4902136;29;20074;-65
2021/03/28 06:33:21;;;;;;;5.15;3.05;;;6.50;70.60;;;;;;4906290;29;20036;-65
2021/03/28 06:36:06;;;;;;;8.23;3.63;;;6.60;69.80;;;;;;4906766;29;20076;-66
2021/03/28 06:38:31;;;;;;;6.72;3.38;;;6.60;70.40;;;;;;4906237;29;20055;-65
2021/03/28 06:41:11;;;;;;;8.13;3.30;;;6.60;69.90;;;;;;4915005;29;20039;-65
2021/03/28 06:44:07;;;;;;;7.90;3.50;;;6.60;69.80;;;;;;4906086;29;20414;-66
2021/03/28 06:47:12;;;;;;;6.57;3.45;;;6.60;69.60;;;;;;4913308;29;20042;-67
2021/03/28 06:49:59;;;;;;;13.15;3.40;;;6.70;69.50;;;;;;4901729;29;20043;-66
2021/03/28 06:52:41;;;;;;;;;;;6.90;69.70;;;;;;4924660;29;20100;-65
2021/03/28 06:55:31;;;;;;;7.97;2.72;;;6.90;68.80;;;;;;4909309;29;19915;-65
2021/03/28 06:58:15;;;;;;;7.00;3.58;;;7.00;69.30;;;;;;4906037;29;20040;-68
2021/03/28 07:01:08;;;;;;;9.55;3.95;;;7.30;68.30;;;;;;4904588;29;20040;-66
2021/03/28 07:03:57;;;;;;;8.65;3.60;;;7.50;66.40;;;;;;4902173;29;20039;-66
2021/03/28 07:06:25;;;;;;;6.13;2.83;;;7.80;66.40;;;;;;4918257;29;20102;-66
2021/03/28 07:09:20;;;;;;;10.93;3.15;;;8.10;64.60;;;;;;4909687;29;20181;-71
2021/03/28 07:12:04;;;;;;;6.28;2.90;;;8.50;63.30;;;;;;4909546;29;20564;-66
2021/03/28 07:14:57;;;;;;;7.97;2.88;;;8.90;62.40;;;;;;4906945;29;20715;-66
2021/03/28 07:17:42;;;;;;;10.27;3.70;;;9.40;59.60;;;;;;4914108;29;20039;-66
2021/03/28 07:20:13;;;;;;;6.43;2.42;;;9.60;59.00;;;;;;4907161;29;20064;-66
2021/03/28 07:23:03;;;;;;;7.13;2.58;;;9.70;58.60;;;;;;4907137;29;20044;-66
2021/03/28 07:25:43;;;;;;;9.05;2.85;;;9.70;58.70;;;;;;4904947;29;20084;-66
2021/03/28 07:28:29;;;;;;;8.00;2.78;;;9.70;58.30;;;;;;4913131;29;20043;-66
2021/03/28 07:31:13;;;;;;;9.27;2.72;;;9.70;57.40;;;;;;4892129;29;20131;-66
2021/03/28 07:34:29;;;;;;;8.90;2.70;;;9.70;59.30;;;;;;5020413;27;20385;-66
2021/03/28 07:37:22;;;;;;;4.95;2.20;;;9.80;57.80;;;;;;4994441;28;20041;-67
2021/03/28 07:40:09;;;;;;;9.93;2.75;;;9.90;57.90;;;;;;4982331;28;20042;-66
2021/03/28 07:43:16;;;;;;;6.50;2.47;;;10.10;58.30;;;;;;4983534;28;20048;-66
2021/03/28 07:46:07;;;;;;;8.27;3.10;;;10.10;57.40;;;;;;4989917;28;20045;-72
2021/03/28 07:49:18;;;;;;;5.43;2.47;;;10.00;57.60;;;;;;4980463;28;20046;-65
2021/03/28 07:52:06;;;;;;;5.20;2.55;;;9.90;57.80;;;;;;4985189;28;20541;-64
2021/03/28 07:54:52;;;;;;;7.05;2.42;;;9.90;58.10;;;;;;4984164;28;20049;-65
2021/03/28 07:57:43;;;;;;;11.93;3.03;;;9.70;58.20;;;;;;4986245;28;20072;-65
2021/03/28 08:00:48;;;;;;;9.32;2.50;;;9.60;58.90;;;;;;4973885;28;20031;-65
2021/03/28 08:03:32;;;;;;;8.75;2.80;;;9.60;59.20;;;;;;4973975;28;20101;-65
2021/03/28 08:06:35;;;;;;;7.15;2.72;;;9.60;58.40;;;;;;4983284;28;20047;-65
2021/03/28 08:09:15;;;;;;;8.35;2.58;;;9.80;58.20;;;;;;4984564;28;20049;-66
2021/03/28 08:11:55;;;;;;;8.35;2.45;;;9.70;58.30;;;;;;4986319;28;20521;-66
2021/03/28 08:14:59;;;;;;;4.20;2.70;;;9.80;57.70;;;;;;4989615;28;20037;-65
2021/03/28 08:17:47;;;;;;;6.53;2.70;;;9.90;59.00;;;;;;4984854;28;20193;-65
2021/03/28 08:20:36;;;;;;;7.10;2.50;;;10.10;59.20;;;;;;4982170;28;20045;-65
2021/03/28 08:23:28;;;;;;;7.97;2.53;;;10.10;58.00;;;;;;4982004;28;20042;-65
2021/03/28 08:26:24;;;;;;;5.47;2.42;;;10.20;57.60;;;;;;4993872;28;20824;-65
2021/03/28 08:29:14;;;;;;;7.65;2.33;;;10.30;56.30;;;;;;4979443;28;20039;-65
2021/03/28 08:32:05;;;;;;;6.20;2.20;;;10.60;56.20;;;;;;4978580;28;20038;-68
2021/03/28 08:34:58;;;;;;;6.07;2.05;;;10.80;56.10;;;;;;4980653;28;20035;-65
2021/03/28 08:38:05;;;;;;;8.52;2.25;;;10.90;53.90;;;;;;5019185;28;20496;-65
2021/03/28 08:40:42;;;;;;;7.72;2.20;;;11.10;54.20;;;;;;4970180;28;20089;-65
2021/03/28 08:43:42;;;;;;;7.55;2.08;;;11.20;55.30;;;;;;4984780;28;20050;-65
2021/03/28 08:46:17;;;;;;;6.53;2.25;;;11.30;53.20;;;;;;4977332;28;20042;-65
2021/03/28 08:49:04;;;;;;;6.50;2.20;;;11.30;52.90;;;;;;4978581;28;20053;-65
2021/03/28 08:52:18;;;;;;;6.93;1.88;;;11.50;54.20;;;;;;4974219;28;20142;-64
2021/03/28 08:55:19;;;;;;;7.35;2.03;;;11.70;52.60;;;;;;4962820;28;20049;-66
2021/03/28 08:58:05;;;;;;;10.90;2.10;;;12.00;52.40;;;;;;4985568;28;20038;-65
2021/03/28 09:01:03;;;;;;;8.85;2.40;;;12.20;51.80;;;;;;4972859;28;20756;-64
2021/03/28 09:03:54;;;;;;;7.80;2.05;;;12.10;51.40;;;;;;4963712;28;20034;-65
2021/03/28 09:06:26;;;;;;;8.25;2.35;;;12.30;51.40;;;;;;4961307;28;20046;-65
2021/03/28 09:08:59;;;;;;;9.38;2.50;;;12.40;51.30;;;;;;4975120;28;20117;-65
2021/03/28 09:12:01;;;;;;;8.27;2.53;;;12.60;50.40;;;;;;4970010;28;20093;-66
2021/03/28 09:15:01;;;;;;;6.28;2.03;;;12.90;49.10;;;;;;4971624;28;20038;-61
2021/03/28 09:17:49;;;;;;;6.07;2.28;;;13.40;48.70;;;;;;4971787;28;20234;-61
2021/03/28 09:20:26;;;;;;;10.77;2.60;;;13.10;47.40;;;;;;4976693;28;20137;-60
2021/03/28 09:23:03;;;;;;;36.60;15.13;;;12.80;48.50;;;;;;4975102;28;20077;-61
2021/03/28 09:25:38;;;;;;;12.48;4.78;;;12.70;50.20;;;;;;4972546;28;20125;-61
2021/03/28 09:28:22;;;;;;;10.27;2.83;;;12.40;49.70;;;;;;4975821;28;20050;-60
2021/03/28 09:31:25;;;;;;;12.38;4.65;;;12.30;50.00;;;;;;4972042;28;20023;-60
2021/03/28 09:34:29;;;;;;;18.63;8.13;;;12.20;51.30;;;;;;4963022;28;20121;-61
2021/03/28 09:37:18;;;;;;;4.85;2.50;;;12.10;52.30;;;;;;4961566;28;20117;-60
2021/03/28 09:40:02;;;;;;;7.57;2.92;;;12.10;50.80;;;;;;5002102;28;20026;-60
2021/03/28 09:42:43;;;;;;;14.43;5.93;;;12.00;51.90;;;;;;4970898;28;20117;-61
2021/03/28 09:45:30;;;;;;;9.52;3.13;;;12.00;52.90;;;;;;4974727;28;20049;-60
2021/03/28 09:47:56;;;;;;;16.63;7.53;;;12.30;51.00;;;;;;4977084;28;20097;-61
2021/03/28 09:50:54;;;;;;;14.57;5.70;;;12.40;52.20;;;;;;4972290;28;20030;-61
2021/03/28 09:53:19;;;;;;;9.05;3.22;;;12.80;52.20;;;;;;4973575;28;20756;-61
2021/03/28 09:56:22;;;;;;;12.50;3.65;;;13.20;49.60;;;;;;4967461;28;20030;-60
2021/03/28 09:59:09;;;;;;;9.25;3.30;;;13.60;49.50;;;;;;4964615;28;20039;-59
2021/03/28 10:01:56;;;;;;;9.65;3.30;;;13.90;48.20;;;;;;4965515;28;20039;-60
2021/03/28 10:04:48;;;;;;;9.38;3.42;;;13.80;48.30;;;;;;4973761;28;20038;-61
2021/03/28 10:07:15;;;;;;;8.90;3.05;;;13.50;49.30;;;;;;4966524;28;20490;-61
2021/03/28 10:09:43;;;;;;;8.88;3.22;;;13.60;50.60;;;;;;4971357;28;20058;-60
2021/03/28 10:12:18;;;;;;;6.88;2.67;;;13.90;49.80;;;;;;4965154;28;20491;-60
2021/03/28 10:14:57;;;;;;;7.60;3.08;;;14.20;49.10;;;;;;4969601;28;20030;-60
2021/03/28 10:17:49;;;;;;;5.95;2.85;;;14.50;49.00;;;;;;4972618;28;20048;-60
2021/03/28 10:20:37;;;;;;;8.77;3.10;;;14.50;47.40;;;;;;4975450;28;20041;-60
2021/03/28 10:23:35;;;;;;;9.70;3.08;;;14.40;48.60;;;;;;4969028;28;20053;-60
2021/03/28 10:26:28;;;;;;;7.78;3.40;;;14.20;49.60;;;;;;4966732;28;20896;-62
2021/03/28 10:29:28;;;;;;;12.52;3.22;;;13.90;49.90;;;;;;4967077;28;20116;-61
2021/03/28 10:32:51;;;;;;;8.45;3.47;;;13.80;50.30;;;;;;4964577;28;20030;-61
2021/03/28 10:35:39;;;;;;;9.95;2.83;;;13.70;52.20;;;;;;4952426;28;20033;-61
2021/03/28 10:38:38;;;;;;;7.45;2.58;;;13.50;50.80;;;;;;4954112;28;20125;-60
2021/03/28 10:41:34;;;;;;;7.10;2.50;;;13.40;50.50;;;;;;4965355;28;20057;-62
2021/03/28 10:44:24;;;;;;;5.60;2.00;;;13.50;51.50;;;;;;4979904;28;20034;-61
2021/03/28 10:47:20;;;;;;;6.68;2.55;;;13.60;51.30;;;;;;4974892;28;20114;-60
2021/03/28 10:50:36;;;;;;;9.77;2.45;;;13.70;49.80;;;;;;4988561;28;20762;-61
2021/03/28 10:53:39;;;;;;;9.23;2.25;;;13.60;49.30;;;;;;4974679;28;20786;-60
2021/03/28 10:56:34;;;;;;;9.45;2.75;;;13.80;50.10;;;;;;4969927;28;20038;-61
2021/03/28 10:59:52;;;;;;;8.57;2.22;;;14.10;49.60;;;;;;4972967;28;20052;-61
2021/03/28 11:02:36;;;;;;;;;;;14.20;48.00;;;;;;4973759;28;20177;-61
2021/03/28 11:05:20;;;;;;;6.97;1.70;;;14.20;49.10;;;;;;4976689;28;19913;-61
2021/03/28 11:08:23;;;;;;;6.53;2.10;;;14.20;47.40;;;;;;4978894;28;20054;-60
2021/03/28 11:10:58;;;;;;;8.10;2.60;;;14.30;48.50;;;;;;4973763;28;20049;-62
2021/03/28 11:13:52;;;;;;;8.55;2.17;;;14.30;48.70;;;;;;4971348;28;20129;-61
2021/03/28 11:16:24;;;;;;;6.68;2.03;;;14.30;48.80;;;;;;4974162;28;20069;-66
2021/03/28 11:19:15;;;;;;;8.73;2.78;;;14.30;49.80;;;;;;4961218;28;20120;-66
2021/03/28 11:22:05;;;;;;;6.30;2.03;;;14.10;47.80;;;;;;4975791;28;20031;-65
2021/03/28 11:24:52;;;;;;;7.30;1.60;;;13.90;48.60;;;;;;4988560;28;20490;-67
2021/03/28 11:27:51;;;;;;;4.85;1.65;;;13.80;48.30;;;;;;4975353;28;20037;-66
2021/03/28 11:30:40;;;;;;;4.57;1.50;;;13.70;49.40;;;;;;4974012;28;20045;-66
2021/03/28 11:33:15;;;;;;;5.03;1.38;;;13.60;49.60;;;;;;4978647;28;20050;-67
2021/03/28 11:35:53;;;;;;;4.38;1.27;;;13.60;49.80;;;;;;4977264;28;20569;-65
2021/03/28 11:38:19;;;;;;;9.40;1.60;;;13.60;50.10;;;;;;4973814;28;20471;-68
2021/03/28 11:41:06;;;;;;;6.00;1.67;;;13.30;49.60;;;;;;4973134;28;20034;-66
2021/03/28 11:43:40;;;;;;;8.98;2.55;;;13.10;50.80;;;;;;4972857;28;20648;-65
2021/03/28 11:46:05;;;;;;;11.85;2.63;;;13.30;51.00;;;;;;4974935;28;20034;-67
2021/03/28 11:48:53;;;;;;;7.15;1.55;;;13.60;50.90;;;;;;4979097;28;20042;-66
2021/03/28 11:51:31;;;;;;;7.15;2.08;;;13.70;50.10;;;;;;4972699;28;20043;-66
2021/03/28 11:54:09;;;;;;;5.22;1.60;;;13.90;49.90;;;;;;4972818;28;20777;-66
2021/03/28 11:56:52;;;;;;;6.70;1.98;;;13.80;50.40;;;;;;4991746;28;20479;-66
2021/03/28 11:59:17;;;;;;;9.38;2.08;;;13.70;50.90;;;;;;4972116;28;20033;-66
2021/03/28 12:01:56;;;;;;;7.00;1.60;;;13.70;50.80;;;;;;4979040;28;20034;-66
2021/03/28 12:04:26;;;;;;;6.60;1.45;;;13.50;51.40;;;;;;4970751;28;20457;-66
2021/03/28 12:07:14;;;;;;;9.20;1.90;;;13.50;51.60;;;;;;4972278;28;20740;-67
2021/03/28 12:09:40;;;;;;;3.58;1.17;;;13.50;51.30;;;;;;4977057;28;20298;-66
2021/03/28 12:12:52;;;;;;;5.75;1.40;;;13.50;53.10;;;;;;4969859;28;20057;-66
2021/03/28 12:15:42;;;;;;;6.30;1.50;;;13.60;51.80;;;;;;4959435;28;20796;-67
2021/03/28 12:18:21;;;;;;;12.95;1.90;;;13.70;52.80;;;;;;4977952;28;20038;-66
2021/03/28 12:21:06;;;;;;;3.47;1.50;;;13.70;52.00;;;;;;4966821;28;20109;-67
2021/03/28 12:23:42;;;;;;;4.85;1.63;;;13.70;52.40;;;;;;4968536;28;20177;-66
2021/03/28 12:26:17;;;;;;;5.50;1.60;;;13.50;53.00;;;;;;4968505;28;20643;-67
2021/03/28 12:28:51;;;;;;;7.97;1.63;;;13.40;53.60;;;;;;4970451;28;20093;-67
2021/03/28 12:31:32;;;;;;;7.82;1.58;;;13.40;53.30;;;;;;4970812;28;20069;-67
2021/03/28 12:34:15;;;;;;;6.35;1.77;;;13.30;54.00;;;;;;4963319;28;20073;-67
2021/03/28 12:37:12;;;;;;;6.32;1.75;;;13.20;53.40;;;;;;4972003;28;20058;-67
2021/03/28 12:39:40;;;;;;;6.10;1.70;;;13.20;54.70;;;;;;4971687;28;20224;-67
2021/03/28 12:42:25;;;;;;;6.88;1.90;;;13.40;53.60;;;;;;4972640;28;20035;-67
2021/03/28 12:45:07;;;;;;;4.55;1.50;;;13.40;54.00;;;;;;4977011;28;20038;-67
2021/03/28 12:47:33;;;;;;;5.78;1.42;;;13.40;53.50;;;;;;4979401;28;20034;-67
2021/03/28 12:50:21;;;;;;;4.30;1.25;;;13.50;55.00;;;;;;4982148;28;20673;-69
2021/03/28 12:52:51;;;;;;;3.47;1.55;;;13.60;53.30;;;;;;4979167;28;20034;-67
2021/03/28 12:55:28;;;;;;;6.80;1.90;;;13.70;53.10;;;;;;4979434;28;20035;-66
2021/03/28 12:58:09;;;;;;;7.22;1.92;;;13.80;54.00;;;;;;4973397;28;20034;-66
2021/03/28 13:00:40;;;;;;;5.10;1.70;;;13.90;53.20;;;;;;4969215;28;20128;-67
2021/03/28 13:03:31;;;;;;;5.85;1.70;;;13.90;52.90;;;;;;4980308;28;20118;-68
2021/03/28 13:06:05;;;;;;;6.15;2.15;;;13.90;53.30;;;;;;4983426;28;20046;-62
2021/03/28 13:09:00;;;;;;;5.10;2.42;;;13.80;53.10;;;;;;4973805;28;20042;-62
2021/03/28 13:11:40;;;;;;;4.63;2.20;;;13.80;54.50;;;;;;4972586;28;20073;-62
2021/03/28 13:14:23;;;;;;;12.93;3.45;;;13.80;53.60;;;;;;4973589;28;20030;-62
2021/03/28 13:16:57;;;;;;;5.85;2.03;;;13.50;53.70;;;;;;4976700;28;20740;-61
2021/03/28 13:19:27;;;;;;;7.15;1.95;;;13.40;54.30;;;;;;4972038;28;20124;-62
2021/03/28 13:21:58;;;;;;;7.65;2.30;;;13.40;54.60;;;;;;4978265;28;20846;-62
2021/03/28 13:24:25;;;;;;;8.70;2.25;;;13.60;55.00;;;;;;4967069;28;20034;-62
2021/03/28 13:27:10;;;;;;;6.35;1.98;;;13.50;54.40;;;;;;4972335;28;20065;-62
2021/03/28 13:29:49;;;;;;;6.55;1.90;;;13.70;53.80;;;;;;4972967;28;20392;-62
2021/03/28 13:32:23;;;;;;;11.77;2.63;;;13.70;53.40;;;;;;4968820;28;20653;-61
2021/03/28 13:34:51;;;;;;;8.38;2.50;;;13.80;54.00;;;;;;4981407;28;20030;-62
2021/03/28 13:37:23;;;;;;;9.80;2.67;;;13.90;54.70;;;;;;4980852;28;20070;-62
2021/03/28 13:40:19;;;;;;;10.43;2.72;;;13.90;54.60;;;;;;4974219;28;20058;-62
2021/03/28 13:43:04;;;;;;;5.10;1.80;;;14.00;54.20;;;;;;4978605;28;20038;-62
2021/03/28 13:45:38;;;;;;;8.35;2.30;;;14.10;53.90;;;;;;5007861;28;20043;-62
2021/03/28 13:48:10;;;;;;;7.65;2.67;;;14.10;53.20;;;;;;4968261;28;20035;-62
2021/03/28 13:50:58;;;;;;;7.40;2.83;;;13.90;53.60;;;;;;4975450;28;20045;-62
2021/03/28 13:53:49;;;;;;;4.72;2.28;;;13.90;53.60;;;;;;4966966;28;20034;-62
2021/03/28 13:56:39;;;;;;;5.32;2.72;;;13.80;53.60;;;;;;4971016;28;20062;-62
2021/03/28 13:59:22;;;;;;;7.43;2.33;;;13.80;54.00;;;;;;4972712;28;20048;-62
2021/03/28 14:02:12;;;;;;;4.78;2.20;;;13.90;54.00;;;;;;4973732;28;20034;-61
2021/03/28 14:04:50;;;;;;;5.85;1.95;;;14.00;53.70;;;;;;5012721;28;20065;-62
2021/03/28 14:07:24;;;;;;;10.85;3.00;;;14.10;53.60;;;;;;4980867;28;20105;-62
2021/03/28 14:10:05;;;;;;;5.28;2.35;;;14.10;54.20;;;;;;4977393;28;20450;-62
2021/03/28 14:12:37;;;;;;;9.70;2.78;;;14.00;54.10;;;;;;4973525;28;20598;-62
2021/03/28 14:15:15;;;;;;;6.50;1.88;;;14.10;54.50;;;;;;5006414;28;20095;-62
2021/03/28 14:17:42;;;;;;;6.40;2.45;;;14.30;53.60;;;;;;4977686;28;20142;-62
2021/03/28 14:20:20;;;;;;;12.10;2.58;;;14.40;53.00;;;;;;5006473;28;20487;-61
2021/03/28 14:22:49;;;;;;;4.47;2.17;;;14.20;53.40;;;;;;4977758;28;20662;-63
2021/03/28 14:25:38;;;;;;;6.97;2.33;;;14.00;54.60;;;;;;4976006;28;20780;-61
2021/03/28 14:28:25;;;;;;;7.05;3.10;;;13.60;54.80;;;;;;4953350;28;20084;-61